Pagrindinis puslapis
METAR-TAF:

METAR-TAF

Oro uostai :

For de Fransas, Martinika

platuma: 14-36N, ilguma: 061-00W, Aukštis: 5 m

Dabartinis oras

Ataskaita buvo paskelbta 34 minutes, ne 23:30 UTC
Vėjas 4 kt iš Rytų
Temperatūra 26°C
Drėgmė 84%
Slėgis 1014 hPa
Matomumas 10 km arba daugiau
nėra debesų žemiau 1500 m ir nėra kamuolinių lietaus debesų

METAR: TFFF 052330Z AUTO 09004KT CAVOK 26/23 Q1014 NOSIG

Laikas: 20:04 (00:04 UTC)

Prognozė

Ataskaita buvo paskelbta 1 valandą ir 4 minutes, ne 23:00 UTC
Prognozė galioja nuo 06 metu 00 UTC su 06 metu 24 UTC
Vėjas 12 kt iš Rytų/Pietryčių
Matomumas 10 km arba daugiau
Išsisklaidę debesys ne aukštis 3000 ft
Laikinai
nuo 06 metu 02 UTC su 06 metu 12 UTC
Vėjas 2 kt nuo kintamojo kryptimis

TAF: TFFF 052300Z 0600/0624 12012KT 9999 SCT030 TEMPO 0602/0612 VRB02KT

Orai ataskaitas ir orų prognozės (METAR, TAF).

turimą stotys yra geltonos ir raudonos taškus žemėlapyje.

Perkelti pele per norėdami pamatyti stoties vardą.

Tada spustelėkite, norėdami matyti oro stebėjimo ir prognozės.

Norėdami pakeisti žemėlapį: spustelėkite ant žalios mygtukų su juodo kryžiaus žemyn,; žalią mygtuką su brūkšneliu, jei norite nutolinti; arba žalių rodyklių gretimoms žemėlapius.


METAR-TAF: